Epsilon Sea — 3FYE2 — position and weather

sailwx.info

Track history (hours):
 
Tides and Currents Weather Stations Pressure Air Temp Water Temp Dewpoint Dewpoint Depression Visibility Wind Speed Wind Dir Waves Ship Positions

Epsilon Sea

Last reported at 2017-Nov-16 13:37 UTC. Time now 2017-Nov-19 18:15 UTC.
Position N 37°39' E 023°43'.

Length 100 m; draft 6.5 m.

Type: Tanker. MMSI: 354198000.

Date/timePositionNaut miles runAvg speedWind from/ knotsBaromVisibWave heightAir tempDewpointWater temp
2017-Nov-16 13:37N 37°39' E 023°43'111.1
2017-Nov-16 13:30N 37°40' E 023°42'611.4
2017-Nov-16 13:00N 37°45' E 023°39'611.2
2017-Nov-16 12:30N 37°50' E 023°36'611.4
2017-Nov-16 12:00N 37°56' E 023°37'4 7.8
2017-Nov-16 11:30N 37°58' E 023°33'4 8.5
2017-Nov-16 11:00N 38°02' E 023°36'0 0.3
2017-Nov-16 10:24N 38°02' E 023°36'0 0.0
2017-Nov-16 09:57N 38°02' E 023°36'0 0.0
2017-Nov-16 09:27N 38°02' E 023°36'0 0.0
2017-Nov-15 18:09N 38°02' E 023°36'3 0.7
2017-Nov-15 14:29N 38°01' E 023°32'0 0.0
2017-Nov-15 13:59N 38°01' E 023°32'0 0.0
2017-Nov-15 13:29N 38°01' E 023°32'0 0.0
2017-Nov-15 12:53N 38°01' E 023°32'0 0.2
2017-Nov-15 12:23N 38°01' E 023°32'0 0.0
2017-Nov-15 11:05N 38°01' E 023°32'0 0.2
2017-Nov-15 10:59N 38°01' E 023°32'0 0.2
2017-Nov-15 10:29N 38°01' E 023°32'0 0.0
2017-Nov-15 09:59N 38°01' E 023°32'0 0.0
2017-Nov-15 09:29N 38°01' E 023°32'0 0.4
2017-Nov-15 09:00N 38°01' E 023°32'4 8.1
2017-Nov-15 08:30N 37°57' E 023°34'3 5.1
2017-Nov-15 08:00N 37°56' E 023°36'510.3
2017-Nov-15 07:30N 37°51' E 023°39'612.8
2017-Nov-15 07:00N 37°45' E 023°43'612.9
2017-Nov-15 06:30N 37°39' E 023°46'  
2017-Nov-10 11:13N 37°39' E 023°43'211.2
2017-Nov-10 11:00N 37°41' E 023°42'611.5
2017-Nov-10 10:30N 37°46' E 023°39'611.5
2017-Nov-10 10:00N 37°52' E 023°36'510.4
2017-Nov-10 09:31N 37°57' E 023°36'4 8.1
2017-Nov-10 09:00N 38°00' E 023°33'3 0.1
2017-Nov-08 16:30N 38°02' E 023°36'2 3.4
2017-Nov-08 16:01N 38°01' E 023°34'2 3.6
2017-Nov-08 15:30N 38°02' E 023°31'0 0.5
2017-Nov-08 14:59N 38°02' E 023°32'0 0.1
2017-Nov-08 14:29N 38°02' E 023°31'0 0.1
2017-Nov-08 13:59N 38°02' E 023°32'0 0.0
2017-Nov-08 13:29N 38°02' E 023°32'0 0.1
2017-Nov-08 12:59N 38°02' E 023°31'0 0.0
2017-Nov-08 12:29N 38°02' E 023°31'0 0.1
2017-Nov-08 11:59N 38°02' E 023°32'0 0.0
2017-Nov-08 11:29N 38°02' E 023°31'0 0.1
2017-Nov-08 10:59N 38°02' E 023°31'0 0.1
2017-Nov-08 10:29N 38°02' E 023°31'0 0.1
2017-Nov-08 09:53N 38°02' E 023°31'0 0.1
2017-Nov-08 09:29N 38°02' E 023°31'0 0.0
2017-Nov-08 08:59N 38°02' E 023°32'0 0.0
2017-Nov-08 08:29N 38°02' E 023°32'0 0.0
2017-Nov-08 07:59N 38°02' E 023°31'0 0.0
2017-Nov-08 07:29N 38°02' E 023°31'0 0.0
2017-Nov-08 06:59N 38°02' E 023°31'0 0.0
2017-Nov-08 06:29N 38°02' E 023°31'0 0.0
2017-Nov-08 05:59N 38°02' E 023°31'0 0.0
2017-Nov-08 05:29N 38°02' E 023°31'0 0.0
2017-Nov-08 04:59N 38°02' E 023°31'0 0.0
2017-Nov-08 04:29N 38°02' E 023°31'0 0.0
2017-Nov-08 03:59N 38°02' E 023°31'0 0.0
2017-Nov-08 03:29N 38°02' E 023°31'0 0.0
2017-Nov-08 02:56N 38°02' E 023°31'0 0.0
2017-Nov-08 02:29N 38°02' E 023°31'0 0.0
2017-Nov-08 01:59N 38°02' E 023°31'0 0.0
2017-Nov-08 01:26N 38°02' E 023°31'0 0.0
2017-Nov-08 00:59N 38°02' E 023°31'0 0.0
2017-Nov-08 00:29N 38°02' E 023°31'0 0.0
2017-Nov-07 23:59N 38°02' E 023°31'0 0.0
2017-Nov-07 23:29N 38°02' E 023°31'0 0.0
2017-Nov-07 22:59N 38°02' E 023°31'0 0.0
2017-Nov-07 22:29N 38°02' E 023°31'0 0.0
2017-Nov-07 21:59N 38°02' E 023°31'0 0.1
2017-Nov-07 21:29N 38°02' E 023°31'0 0.0
2017-Nov-07 20:59N 38°02' E 023°31'0 0.1
2017-Nov-07 20:29N 38°02' E 023°31'0 0.1
2017-Nov-07 19:59N 38°02' E 023°31'0 0.1
2017-Nov-07 19:29N 38°02' E 023°31'0 0.0
2017-Nov-07 18:59N 38°02' E 023°31'0 0.1
2017-Nov-07 18:26N 38°02' E 023°31'0 0.0
2017-Nov-07 17:59N 38°02' E 023°31'0 0.1
2017-Nov-07 17:29N 38°02' E 023°31'0 0.0
2017-Nov-07 16:59N 38°02' E 023°31'0 0.0
2017-Nov-07 16:29N 38°02' E 023°31'0 0.0
2017-Nov-07 15:59N 38°02' E 023°31'0 0.1
2017-Nov-07 15:29N 38°02' E 023°31'0 0.0
2017-Nov-07 14:59N 38°02' E 023°31'0 0.0
2017-Nov-07 14:29N 38°02' E 023°31'0 0.0
2017-Nov-07 13:59N 38°02' E 023°31'0 0.0
2017-Nov-07 13:29N 38°02' E 023°31'0 0.0
2017-Nov-07 12:59N 38°02' E 023°31'0 0.0
2017-Nov-07 12:29N 38°02' E 023°31'0 0.0
2017-Nov-07 11:59N 38°02' E 023°31'0 0.0
2017-Nov-07 11:29N 38°02' E 023°31'0 0.0
2017-Nov-07 10:59N 38°02' E 023°31'0 0.1
2017-Nov-07 10:29N 38°02' E 023°31'0 0.0
2017-Nov-07 09:59N 38°02' E 023°31'0 0.0
2017-Nov-07 09:29N 38°02' E 023°31'0 0.1
2017-Nov-07 08:59N 38°02' E 023°31'0 0.1
2017-Nov-07 08:29N 38°02' E 023°31'0 0.0
2017-Nov-07 07:59N 38°02' E 023°31'0 0.0
2017-Nov-07 07:29N 38°02' E 023°31'0 0.0
2017-Nov-07 06:59N 38°02' E 023°31'0 0.0
2017-Nov-07 06:29N 38°02' E 023°31'0 0.0
2017-Nov-07 05:59N 38°02' E 023°32'0 0.0
2017-Nov-07 05:29N 38°02' E 023°32'0 0.0
2017-Nov-07 04:59N 38°02' E 023°32'0 0.0
2017-Nov-07 04:29N 38°02' E 023°32'0 0.0
2017-Nov-07 03:56N 38°02' E 023°32'0 0.0
2017-Nov-07 03:29N 38°02' E 023°31'0 0.0
2017-Nov-07 02:59N 38°02' E 023°32'0 0.0
2017-Nov-07 02:29N 38°02' E 023°32'0 0.0
2017-Nov-07 01:59N 38°02' E 023°32'0 0.0
2017-Nov-07 01:29N 38°02' E 023°32'0 0.0
2017-Nov-07 00:59N 38°02' E 023°32'0 0.0
2017-Nov-07 00:29N 38°02' E 023°31'0 0.0
2017-Nov-06 23:59N 38°02' E 023°31'0 0.0
2017-Nov-06 23:29N 38°02' E 023°32'0 0.0
2017-Nov-06 22:59N 38°02' E 023°31'0 0.0
2017-Nov-06 22:29N 38°02' E 023°32'0 0.0
2017-Nov-06 21:59N 38°02' E 023°32'0 0.0
2017-Nov-06 21:29N 38°02' E 023°32'0 0.0
2017-Nov-06 20:59N 38°02' E 023°32'0 0.0
2017-Nov-06 20:29N 38°02' E 023°31'  
Track history (hours):
 
Tides and Currents Weather Stations Pressure Air Temp Water Temp Dewpoint Dewpoint Depression Visibility Wind Speed Wind Dir Waves Ship Positions

Epsilon Sea

Last reported at 2017-Nov-16 13:37 UTC. Time now 2017-Nov-19 18:15 UTC.
Position N 37°39' E 023°43'.

Length 100 m; draft 6.5 m.

Type: Tanker. MMSI: 354198000.

Date/timePositionNaut miles runAvg speedWind from/ knotsBaromVisibWave heightAir tempDewpointWater temp
2017-Nov-16 13:37N 37°39' E 023°43'111.1
2017-Nov-16 13:30N 37°40' E 023°42'611.4
2017-Nov-16 13:00N 37°45' E 023°39'611.2
2017-Nov-16 12:30N 37°50' E 023°36'611.4
2017-Nov-16 12:00N 37°56' E 023°37'4 7.8
2017-Nov-16 11:30N 37°58' E 023°33'4 8.5
2017-Nov-16 11:00N 38°02' E 023°36'0 0.3
2017-Nov-16 10:24N 38°02' E 023°36'0 0.0
2017-Nov-16 09:57N 38°02' E 023°36'0 0.0
2017-Nov-16 09:27N 38°02' E 023°36'0 0.0
2017-Nov-15 18:09N 38°02' E 023°36'3 0.7
2017-Nov-15 14:29N 38°01' E 023°32'0 0.0
2017-Nov-15 13:59N 38°01' E 023°32'0 0.0
2017-Nov-15 13:29N 38°01' E 023°32'0 0.0
2017-Nov-15 12:53N 38°01' E 023°32'0 0.2
2017-Nov-15 12:23N 38°01' E 023°32'0 0.0
2017-Nov-15 11:05N 38°01' E 023°32'0 0.2
2017-Nov-15 10:59N 38°01' E 023°32'0 0.2
2017-Nov-15 10:29N 38°01' E 023°32'0 0.0
2017-Nov-15 09:59N 38°01' E 023°32'0 0.0
2017-Nov-15 09:29N 38°01' E 023°32'0 0.4
2017-Nov-15 09:00N 38°01' E 023°32'4 8.1
2017-Nov-15 08:30N 37°57' E 023°34'3 5.1
2017-Nov-15 08:00N 37°56' E 023°36'510.3
2017-Nov-15 07:30N 37°51' E 023°39'612.8
2017-Nov-15 07:00N 37°45' E 023°43'612.9
2017-Nov-15 06:30N 37°39' E 023°46'  
2017-Nov-10 11:13N 37°39' E 023°43'211.2
2017-Nov-10 11:00N 37°41' E 023°42'611.5
2017-Nov-10 10:30N 37°46' E 023°39'611.5
2017-Nov-10 10:00N 37°52' E 023°36'510.4
2017-Nov-10 09:31N 37°57' E 023°36'4 8.1
2017-Nov-10 09:00N 38°00' E 023°33'3 0.1
2017-Nov-08 16:30N 38°02' E 023°36'2 3.4
2017-Nov-08 16:01N 38°01' E 023°34'2 3.6
2017-Nov-08 15:30N 38°02' E 023°31'0 0.5
2017-Nov-08 14:59N 38°02' E 023°32'0 0.1
2017-Nov-08 14:29N 38°02' E 023°31'0 0.1
2017-Nov-08 13:59N 38°02' E 023°32'0 0.0
2017-Nov-08 13:29N 38°02' E 023°32'0 0.1
2017-Nov-08 12:59N 38°02' E 023°31'0 0.0
2017-Nov-08 12:29N 38°02' E 023°31'0 0.1
2017-Nov-08 11:59N 38°02' E 023°32'0 0.0
2017-Nov-08 11:29N 38°02' E 023°31'0 0.1
2017-Nov-08 10:59N 38°02' E 023°31'0 0.1
2017-Nov-08 10:29N 38°02' E 023°31'0 0.1
2017-Nov-08 09:53N 38°02' E 023°31'0 0.1
2017-Nov-08 09:29N 38°02' E 023°31'0 0.0
2017-Nov-08 08:59N 38°02' E 023°32'0 0.0
2017-Nov-08 08:29N 38°02' E 023°32'0 0.0
2017-Nov-08 07:59N 38°02' E 023°31'0 0.0
2017-Nov-08 07:29N 38°02' E 023°31'0 0.0
2017-Nov-08 06:59N 38°02' E 023°31'0 0.0
2017-Nov-08 06:29N 38°02' E 023°31'0 0.0
2017-Nov-08 05:59N 38°02' E 023°31'0 0.0
2017-Nov-08 05:29N 38°02' E 023°31'0 0.0
2017-Nov-08 04:59N 38°02' E 023°31'0 0.0
2017-Nov-08 04:29N 38°02' E 023°31'0 0.0
2017-Nov-08 03:59N 38°02' E 023°31'0 0.0
2017-Nov-08 03:29N 38°02' E 023°31'0 0.0
2017-Nov-08 02:56N 38°02' E 023°31'0 0.0
2017-Nov-08 02:29N 38°02' E 023°31'0 0.0
2017-Nov-08 01:59N 38°02' E 023°31'0 0.0
2017-Nov-08 01:26N 38°02' E 023°31'0 0.0
2017-Nov-08 00:59N 38°02' E 023°31'0 0.0
2017-Nov-08 00:29N 38°02' E 023°31'0 0.0
2017-Nov-07 23:59N 38°02' E 023°31'0 0.0
2017-Nov-07 23:29N 38°02' E 023°31'0 0.0
2017-Nov-07 22:59N 38°02' E 023°31'0 0.0
2017-Nov-07 22:29N 38°02' E 023°31'0 0.0
2017-Nov-07 21:59N 38°02' E 023°31'0 0.1
2017-Nov-07 21:29N 38°02' E 023°31'0 0.0
2017-Nov-07 20:59N 38°02' E 023°31'0 0.1
2017-Nov-07 20:29N 38°02' E 023°31'0 0.1
2017-Nov-07 19:59N 38°02' E 023°31'0 0.1
2017-Nov-07 19:29N 38°02' E 023°31'0 0.0
2017-Nov-07 18:59N 38°02' E 023°31'0 0.1
2017-Nov-07 18:26N 38°02' E 023°31'0 0.0
2017-Nov-07 17:59N 38°02' E 023°31'0 0.1
2017-Nov-07 17:29N 38°02' E 023°31'0 0.0
2017-Nov-07 16:59N 38°02' E 023°31'0 0.0
2017-Nov-07 16:29N 38°02' E 023°31'0 0.0
2017-Nov-07 15:59N 38°02' E 023°31'0 0.1
2017-Nov-07 15:29N 38°02' E 023°31'0 0.0
2017-Nov-07 14:59N 38°02' E 023°31'0 0.0
2017-Nov-07 14:29N 38°02' E 023°31'0 0.0
2017-Nov-07 13:59N 38°02' E 023°31'0 0.0
2017-Nov-07 13:29N 38°02' E 023°31'0 0.0
2017-Nov-07 12:59N 38°02' E 023°31'0 0.0
2017-Nov-07 12:29N 38°02' E 023°31'0 0.0
2017-Nov-07 11:59N 38°02' E 023°31'0 0.0
2017-Nov-07 11:29N 38°02' E 023°31'0 0.0
2017-Nov-07 10:59N 38°02' E 023°31'0 0.1
2017-Nov-07 10:29N 38°02' E 023°31'0 0.0
2017-Nov-07 09:59N 38°02' E 023°31'0 0.0
2017-Nov-07 09:29N 38°02' E 023°31'0 0.1
2017-Nov-07 08:59N 38°02' E 023°31'0 0.1
2017-Nov-07 08:29N 38°02' E 023°31'0 0.0
2017-Nov-07 07:59N 38°02' E 023°31'0 0.0
2017-Nov-07 07:29N 38°02' E 023°31'0 0.0
2017-Nov-07 06:59N 38°02' E 023°31'0 0.0
2017-Nov-07 06:29N 38°02' E 023°31'0 0.0
2017-Nov-07 05:59N 38°02' E 023°32'0 0.0
2017-Nov-07 05:29N 38°02' E 023°32'0 0.0
2017-Nov-07 04:59N 38°02' E 023°32'0 0.0
2017-Nov-07 04:29N 38°02' E 023°32'0 0.0
2017-Nov-07 03:56N 38°02' E 023°32'0 0.0
2017-Nov-07 03:29N 38°02' E 023°31'0 0.0
2017-Nov-07 02:59N 38°02' E 023°32'0 0.0
2017-Nov-07 02:29N 38°02' E 023°32'0 0.0
2017-Nov-07 01:59N 38°02' E 023°32'0 0.0
2017-Nov-07 01:29N 38°02' E 023°32'0 0.0
2017-Nov-07 00:59N 38°02' E 023°32'0 0.0
2017-Nov-07 00:29N 38°02' E 023°31'0 0.0
2017-Nov-06 23:59N 38°02' E 023°31'0 0.0
2017-Nov-06 23:29N 38°02' E 023°32'0 0.0
2017-Nov-06 22:59N 38°02' E 023°31'0 0.0
2017-Nov-06 22:29N 38°02' E 023°32'0 0.0
2017-Nov-06 21:59N 38°02' E 023°32'0 0.0
2017-Nov-06 21:29N 38°02' E 023°32'0 0.0
2017-Nov-06 20:59N 38°02' E 023°32'0 0.0
2017-Nov-06 20:29N 38°02' E 023°31'  

Dump ship's entire track history